createdAt,value
2023-03-13T00:01:21.440Z,101495.06
2023-03-13T00:03:48.928Z,101478.31
2023-03-13T00:06:16.509Z,101486.53
2023-03-13T00:08:45.067Z,101487.50
2023-03-13T00:11:13.759Z,101491.28
2023-03-13T00:13:41.162Z,101488.97
2023-03-13T00:16:14.042Z,101483.59
2023-03-13T00:18:47.378Z,101479.59
2023-03-13T00:21:14.605Z,101481.81
2023-03-13T00:23:41.526Z,101480.97
2023-03-13T00:26:10.867Z,101488.88
2023-03-13T00:28:39.603Z,101490.88
2023-03-13T00:31:18.458Z,101488.88
2023-03-13T00:33:47.871Z,101490.13
2023-03-13T00:36:19.336Z,101490.28
2023-03-13T00:38:46.874Z,101485.00
2023-03-13T00:41:22.714Z,101481.59
2023-03-13T00:43:50.655Z,101481.59
2023-03-13T00:46:20.662Z,101487.22
2023-03-13T00:48:48.244Z,101484.06
2023-03-13T00:51:16.843Z,101492.63
2023-03-13T00:53:45.103Z,101498.84
2023-03-13T00:56:14.537Z,101483.56
2023-03-13T00:58:43.133Z,101487.25
2023-03-13T01:01:18.782Z,101491.16
2023-03-13T01:03:48.846Z,101489.44
2023-03-13T01:06:18.495Z,101487.75
2023-03-13T01:08:45.691Z,101479.44
2023-03-13T01:11:18.587Z,101480.56
2023-03-13T01:13:45.960Z,101482.66
2023-03-13T01:16:19.412Z,101481.44
2023-03-13T01:18:52.549Z,101481.06
2023-03-13T01:21:21.287Z,101480.91
2023-03-13T01:23:49.815Z,101476.28
2023-03-13T01:26:16.930Z,101466.16
2023-03-13T01:28:44.058Z,101461.38
2023-03-13T01:31:13.173Z,101452.34
2023-03-13T01:33:40.263Z,101463.81
2023-03-13T01:36:08.898Z,101453.31
2023-03-13T01:38:36.562Z,101449.50
2023-03-13T01:41:07.094Z,101451.34
2023-03-13T01:43:36.695Z,101448.66
2023-03-13T01:46:20.119Z,101435.22
2023-03-13T01:49:00.682Z,101435.47
2023-03-13T01:51:35.424Z,101438.44
2023-03-13T01:54:11.876Z,101441.50
2023-03-13T01:56:53.376Z,101435.25
2023-03-13T01:59:27.192Z,101420.38
2023-03-13T02:01:57.650Z,101430.97
2023-03-13T02:04:27.508Z,101425.75
2023-03-13T02:07:02.647Z,101418.66
2023-03-13T02:09:32.112Z,101416.91
2023-03-13T02:12:07.431Z,101410.78
2023-03-13T02:14:37.711Z,101405.69
2023-03-13T02:17:05.591Z,101398.59
2023-03-13T02:19:49.156Z,101390.53
2023-03-13T02:22:41.579Z,101385.16
2023-03-13T02:25:11.858Z,101377.63
2023-03-13T02:27:39.896Z,101383.22
2023-03-13T02:30:09.613Z,101385.22
2023-03-13T02:32:37.498Z,101380.81
2023-03-13T02:35:19.126Z,101371.78
2023-03-13T02:37:51.238Z,101360.28
2023-03-13T02:40:29.487Z,101362.22
2023-03-13T02:43:00.540Z,101363.25
2023-03-13T02:45:28.829Z,101364.81
2023-03-13T02:47:55.724Z,101369.00
2023-03-13T02:50:23.916Z,101357.25
2023-03-13T02:52:56.991Z,101359.72
2023-03-13T02:55:30.153Z,101347.88
2023-03-13T02:57:57.293Z,101346.88
2023-03-13T03:00:27.792Z,101343.34
2023-03-13T03:02:58.452Z,101342.63
2023-03-13T03:05:25.380Z,101352.50
2023-03-13T03:07:52.558Z,101345.19
2023-03-13T03:10:19.776Z,101332.09
2023-03-13T03:12:46.734Z,101327.38
2023-03-13T03:15:14.527Z,101335.03
2023-03-13T03:17:45.110Z,101337.59
2023-03-13T03:20:12.648Z,101337.59
2023-03-13T03:22:42.818Z,101329.19
2023-03-13T03:25:10.275Z,101329.19
2023-03-13T03:27:37.313Z,101326.34
2023-03-13T03:30:08.058Z,101328.06
2023-03-13T03:32:40.616Z,101322.69
2023-03-13T03:35:08.019Z,101322.94
2023-03-13T03:37:35.313Z,101317.81
2023-03-13T03:40:06.076Z,101324.63
2023-03-13T03:42:33.820Z,101320.97
2023-03-13T03:45:00.757Z,101321.72
2023-03-13T03:47:27.843Z,101317.03
2023-03-13T03:49:54.904Z,101326.13
2023-03-13T03:52:22.270Z,101315.09
2023-03-13T03:54:49.214Z,101318.53
2023-03-13T03:57:17.811Z,101313.38
2023-03-13T03:59:46.118Z,101317.78
2023-03-13T04:02:13.178Z,101309.72
2023-03-13T04:04:41.879Z,101308.88
2023-03-13T04:07:12.729Z,101318.75
2023-03-13T04:09:40.640Z,101314.34
2023-03-13T04:12:09.568Z,101316.56
2023-03-13T04:14:42.059Z,101310.22
2023-03-13T04:17:11.598Z,101308.50
2023-03-13T04:19:39.213Z,101312.78
2023-03-13T04:22:07.022Z,101302.91
2023-03-13T04:24:34.520Z,101294.09
2023-03-13T04:27:03.721Z,101295.81
2023-03-13T04:29:31.108Z,101292.41
2023-03-13T04:32:24.539Z,101296.09
2023-03-13T04:35:00.689Z,101290.94
2023-03-13T04:37:43.770Z,101294.59
2023-03-13T04:40:47.214Z,101295.47
2023-03-13T04:43:43.387Z,101283.88
2023-03-13T04:46:32.809Z,101292.66
2023-03-13T04:49:35.343Z,101291.94
2023-03-13T04:52:05.556Z,101285.84
2023-03-13T04:54:51.263Z,101287.41
2023-03-13T04:57:37.000Z,101295.63
2023-03-13T05:00:24.237Z,101292.94
2023-03-13T05:03:10.262Z,101286.56
2023-03-13T05:06:00.099Z,101278.50
2023-03-13T05:08:53.349Z,101287.56
2023-03-13T05:11:46.448Z,101292.19
2023-03-13T05:14:44.880Z,101289.63
2023-03-13T05:17:35.467Z,101296.84
2023-03-13T05:20:34.782Z,101290.84
2023-03-13T05:23:10.680Z,101291.97
2023-03-13T05:25:50.359Z,101292.84
2023-03-13T05:28:37.529Z,101289.13
2023-03-13T05:31:39.704Z,101291.97
2023-03-13T05:34:21.219Z,101295.63
2023-03-13T05:37:06.894Z,101302.94
2023-03-13T05:39:52.240Z,101294.19
2023-03-13T05:42:49.108Z,101295.03
2023-03-13T05:45:32.466Z,101287.09
2023-03-13T05:48:20.422Z,101291.72
2023-03-13T05:51:19.539Z,101280.28
2023-03-13T05:54:06.545Z,101271.50
2023-03-13T05:57:02.670Z,101277.13
2023-03-13T06:00:00.594Z,101272.59
2023-03-13T06:02:46.475Z,101281.25
2023-03-13T06:05:20.693Z,101273.19
2023-03-13T06:07:50.399Z,101272.94
2023-03-13T06:10:17.587Z,101276.25
2023-03-13T06:12:44.837Z,101282.69
2023-03-13T06:15:13.592Z,101285.44
2023-03-13T06:18:15.793Z,101279.13
2023-03-13T06:20:42.743Z,101281.97
2023-03-13T06:23:09.749Z,101283.63
2023-03-13T06:25:36.776Z,101275.56
2023-03-13T06:28:03.672Z,101273.09
2023-03-13T06:30:30.656Z,101264.00
2023-03-13T06:32:59.115Z,101270.84
2023-03-13T06:35:26.178Z,101272.72
2023-03-13T06:37:54.264Z,101275.31
2023-03-13T06:40:21.247Z,101281.19
2023-03-13T06:42:48.127Z,101276.78
2023-03-13T06:45:15.131Z,101274.47
2023-03-13T06:47:42.356Z,101268.44
2023-03-13T06:50:11.163Z,101274.47
2023-03-13T06:52:44.042Z,101266.47
2023-03-13T06:55:13.839Z,101274.88
2023-03-13T06:57:41.197Z,101273.59
2023-03-13T07:00:11.577Z,101270.13
2023-03-13T07:02:38.562Z,101269.06
2023-03-13T07:05:06.125Z,101266.75
2023-03-13T07:07:35.829Z,101274.00
2023-03-13T07:10:02.881Z,101280.41
2023-03-13T07:12:29.932Z,101287.16
2023-03-13T07:14:56.916Z,101289.78
2023-03-13T07:17:23.871Z,101282.13
2023-03-13T07:19:50.910Z,101289.91
2023-03-13T07:22:17.847Z,101287.28
2023-03-13T07:24:45.009Z,101299.06
2023-03-13T07:27:12.058Z,101298.75
2023-03-13T07:29:38.985Z,101297.09
2023-03-13T07:32:06.529Z,101290.38
2023-03-13T07:34:33.596Z,101284.75
2023-03-13T07:37:00.489Z,101286.31
2023-03-13T07:39:27.558Z,101289.44
2023-03-13T07:41:54.525Z,101300.97
2023-03-13T07:44:21.515Z,101286.41
2023-03-13T07:46:50.238Z,101284.72
2023-03-13T07:49:17.195Z,101278.22
2023-03-13T07:51:44.736Z,101268.34
2023-03-13T07:54:12.276Z,101271.75
2023-03-13T07:56:39.573Z,101276.44
2023-03-13T07:59:06.976Z,101277.66
2023-03-13T08:01:34.035Z,101277.22
2023-03-13T08:04:06.483Z,101272.03
2023-03-13T08:06:40.230Z,101264.03
2023-03-13T08:09:07.259Z,101264.28
2023-03-13T08:11:34.197Z,101266.13
2023-03-13T08:14:01.184Z,101261.50
2023-03-13T08:16:30.944Z,101262.81
2023-03-13T08:18:59.347Z,101264.66
2023-03-13T08:21:29.108Z,101269.94
2023-03-13T08:23:58.219Z,101275.59
2023-03-13T08:26:29.684Z,101265.50
2023-03-13T08:28:59.267Z,101258.19
2023-03-13T08:31:38.194Z,101257.00
2023-03-13T08:34:05.345Z,101261.41
2023-03-13T08:36:34.926Z,101259.78
2023-03-13T08:39:08.294Z,101253.09
2023-03-13T08:41:36.897Z,101254.97
2023-03-13T08:44:07.983Z,101270.59
2023-03-13T08:46:36.524Z,101268.06
2023-03-13T08:49:06.114Z,101267.63
2023-03-13T08:51:34.189Z,101265.06
2023-03-13T08:54:02.360Z,101256.28
2023-03-13T08:56:33.119Z,101254.00
2023-03-13T08:59:02.198Z,101246.38
2023-03-13T09:01:33.196Z,101245.47
2023-03-13T09:04:04.010Z,101250.47
2023-03-13T09:06:36.013Z,101248.22
2023-03-13T09:09:03.672Z,101240.03
2023-03-13T09:11:30.602Z,101235.22
2023-03-13T09:13:59.451Z,101227.97
2023-03-13T09:16:31.372Z,101223.81
2023-03-13T09:18:59.402Z,101232.50
2023-03-13T09:21:32.259Z,101226.69
2023-03-13T09:23:59.405Z,101223.56
2023-03-13T09:26:27.910Z,101222.31
2023-03-13T09:28:55.490Z,101221.75
2023-03-13T09:31:33.178Z,101217.13
2023-03-13T09:34:00.841Z,101211.28
2023-03-13T09:36:28.289Z,101208.72
2023-03-13T09:38:57.963Z,101208.84
2023-03-13T09:41:43.216Z,101199.59
2023-03-13T09:44:23.432Z,101187.75
2023-03-13T09:46:53.502Z,101198.09
2023-03-13T09:49:23.327Z,101195.78
2023-03-13T09:51:56.606Z,101199.06
2023-03-13T09:54:34.899Z,101191.81
2023-03-13T09:57:15.578Z,101184.84
2023-03-13T09:59:52.993Z,101186.09
2023-03-13T10:02:23.726Z,101184.22
2023-03-13T10:04:58.452Z,101182.81
2023-03-13T10:07:25.374Z,101180.06
2023-03-13T10:09:53.757Z,101179.00
2023-03-13T10:12:29.029Z,101169.28
2023-03-13T10:15:18.051Z,101173.81
2023-03-13T10:17:45.356Z,101164.47
2023-03-13T10:20:15.447Z,101166.63
2023-03-13T10:22:46.617Z,101158.53
2023-03-13T10:25:27.521Z,101161.09
2023-03-13T10:27:55.602Z,101156.72
2023-03-13T10:30:27.272Z,101145.63
2023-03-13T10:32:59.506Z,101144.09
2023-03-13T10:35:35.083Z,101146.06
2023-03-13T10:38:24.035Z,101137.19
2023-03-13T10:40:59.244Z,101135.03
2023-03-13T10:43:28.845Z,101128.59
2023-03-13T10:45:55.831Z,101120.81
2023-03-13T10:48:30.579Z,101119.09
2023-03-13T10:50:57.884Z,101111.34
2023-03-13T10:53:30.651Z,101111.25
2023-03-13T10:56:15.210Z,101099.22
2023-03-13T10:58:48.436Z,101096.97
2023-03-13T11:01:34.212Z,101092.25
2023-03-13T11:04:29.715Z,101086.44
2023-03-13T11:07:16.479Z,101095.34
2023-03-13T11:09:43.968Z,101099.44
2023-03-13T11:12:21.058Z,101087.19
2023-03-13T11:14:48.222Z,101094.81
2023-03-13T11:17:30.664Z,101084.22
2023-03-13T11:20:02.873Z,101085.38
2023-03-13T11:22:51.124Z,101080.34
2023-03-13T11:25:46.888Z,101068.56
2023-03-13T11:28:13.677Z,101061.69
2023-03-13T11:31:11.541Z,101062.09
2023-03-13T11:33:57.637Z,101056.88
2023-03-13T11:36:40.800Z,101053.97
2023-03-13T11:39:19.956Z,101044.19
2023-03-13T11:42:00.940Z,101038.19
2023-03-13T11:44:59.447Z,101029.34
2023-03-13T11:47:50.959Z,101028.03
2023-03-13T11:50:26.746Z,101034.41
2023-03-13T11:53:20.161Z,101019.78
2023-03-13T11:56:23.145Z,101023.63
2023-03-13T11:59:14.888Z,101005.50
2023-03-13T12:02:11.510Z,101004.41
2023-03-13T12:04:46.912Z,100997.13
2023-03-13T12:07:32.806Z,101011.84
2023-03-13T12:10:09.880Z,100993.50
2023-03-13T12:12:54.001Z,101007.19
2023-03-13T12:15:22.937Z,100988.50
2023-03-13T12:17:49.769Z,100973.94
2023-03-13T12:20:28.146Z,100972.50
2023-03-13T12:23:12.466Z,100967.50
2023-03-13T12:25:48.114Z,100955.97
2023-03-13T12:28:37.405Z,100945.53
2023-03-13T12:31:11.746Z,100932.94
2023-03-13T12:33:46.673Z,100935.47
2023-03-13T12:36:26.742Z,100935.63
2023-03-13T12:39:19.894Z,100925.25
2023-03-13T12:42:11.673Z,100915.44
2023-03-13T12:44:40.259Z,100902.50
2023-03-13T12:47:16.333Z,100904.75
2023-03-13T12:50:15.070Z,100889.44
2023-03-13T12:52:58.256Z,100894.59
2023-03-13T12:55:46.473Z,100888.56
2023-03-13T12:58:31.631Z,100890.75
2023-03-13T13:01:04.547Z,100896.25
2023-03-13T13:03:45.065Z,100885.78
2023-03-13T13:06:15.418Z,100891.47
2023-03-13T13:09:06.954Z,100883.38
2023-03-13T13:11:33.911Z,100874.38
2023-03-13T13:14:02.076Z,100872.50
2023-03-13T13:16:30.662Z,100874.31
2023-03-13T13:19:23.035Z,100848.38
2023-03-13T13:22:27.517Z,100861.72
2023-03-13T13:25:00.573Z,100852.47
2023-03-13T13:27:34.648Z,100839.22
2023-03-13T13:30:25.520Z,100831.03
2023-03-13T13:32:55.649Z,100822.47
2023-03-13T13:35:35.680Z,100839.59
2023-03-13T13:38:20.619Z,100833.38
2023-03-13T13:41:07.567Z,100804.91
2023-03-13T13:43:37.193Z,100801.25
2023-03-13T13:46:18.968Z,100784.53
2023-03-13T13:48:45.935Z,100781.41
2023-03-13T13:51:14.208Z,100771.16
2023-03-13T13:53:59.901Z,100773.09
2023-03-13T13:56:36.320Z,100748.53
2023-03-13T13:59:06.289Z,100741.50
2023-03-13T14:01:34.442Z,100735.69
2023-03-13T14:04:20.206Z,100740.78
2023-03-13T14:06:50.894Z,100736.81
2023-03-13T14:09:30.851Z,100719.19
2023-03-13T14:11:58.109Z,100720.66
2023-03-13T14:14:25.180Z,100730.78
2023-03-13T14:16:57.141Z,100723.09
2023-03-13T14:19:43.417Z,100725.38
2023-03-13T14:22:14.714Z,100729.69
2023-03-13T14:24:41.640Z,100735.22
2023-03-13T14:27:18.798Z,100734.13
2023-03-13T14:30:09.234Z,100735.53
2023-03-13T14:32:37.509Z,100724.38
2023-03-13T14:35:06.527Z,100717.63
2023-03-13T14:37:41.306Z,100723.03
2023-03-13T14:40:29.846Z,100721.13
2023-03-13T14:43:02.573Z,100719.38
2023-03-13T14:45:39.907Z,100714.63
2023-03-13T14:48:23.666Z,100717.25
2023-03-13T14:51:02.356Z,100705.47
2023-03-13T14:53:39.536Z,100694.78
2023-03-13T14:56:21.014Z,100699.81
2023-03-13T14:58:51.681Z,100710.25
2023-03-13T15:01:27.267Z,100699.72
2023-03-13T15:03:54.345Z,100683.06
2023-03-13T15:06:23.987Z,100669.16
2023-03-13T15:09:15.592Z,100667.13
2023-03-13T15:11:54.841Z,100673.00
2023-03-13T15:14:43.729Z,100658.16
2023-03-13T15:17:12.789Z,100658.53
2023-03-13T15:19:39.682Z,100655.00
2023-03-13T15:22:12.449Z,100647.53
2023-03-13T15:24:39.333Z,100632.28
2023-03-13T15:27:16.265Z,100642.47
2023-03-13T15:29:44.009Z,100629.97
2023-03-13T15:32:27.762Z,100623.53
2023-03-13T15:34:58.691Z,100616.78
2023-03-13T15:37:30.397Z,100617.63
2023-03-13T15:39:58.513Z,100611.38
2023-03-13T15:42:25.783Z,100603.06
2023-03-13T15:44:52.774Z,100596.44
2023-03-13T15:47:21.961Z,100583.91
2023-03-13T15:49:49.023Z,100592.22
2023-03-13T15:52:25.406Z,100588.31
2023-03-13T15:54:52.330Z,100587.63
2023-03-13T15:57:24.010Z,100578.06
2023-03-13T15:59:52.585Z,100583.41
2023-03-13T16:02:24.254Z,100575.94
2023-03-13T16:04:51.693Z,100580.03
2023-03-13T16:07:21.216Z,100586.16
2023-03-13T16:09:49.077Z,100588.53
2023-03-13T16:12:16.190Z,100587.53
2023-03-13T16:14:43.096Z,100572.28
2023-03-13T16:17:15.017Z,100564.47
2023-03-13T16:19:42.886Z,100553.06
2023-03-13T16:22:10.353Z,100556.06
2023-03-13T16:24:37.316Z,100564.00
2023-03-13T16:27:14.457Z,100559.97
2023-03-13T16:30:06.436Z,100552.38
2023-03-13T16:32:33.554Z,100550.75
2023-03-13T16:35:00.536Z,100556.22
2023-03-13T16:37:27.489Z,100553.84
2023-03-13T16:39:54.359Z,100558.28
2023-03-13T16:42:21.355Z,100571.94
2023-03-13T16:44:48.270Z,100563.34
2023-03-13T16:47:27.660Z,100555.75
2023-03-13T16:49:55.380Z,100538.84
2023-03-13T16:52:22.325Z,100545.78
2023-03-13T16:54:50.175Z,100534.97
2023-03-13T16:57:24.232Z,100523.50
2023-03-13T16:59:51.606Z,100523.50
2023-03-13T17:02:20.788Z,100521.81
2023-03-13T17:04:48.521Z,100511.84
2023-03-13T17:07:23.484Z,100513.41
2023-03-13T17:09:51.580Z,100512.06
2023-03-13T17:12:19.572Z,100516.13
2023-03-13T17:14:47.304Z,100509.59
2023-03-13T17:17:19.290Z,100511.13
2023-03-13T17:19:49.710Z,100503.00
2023-03-13T17:22:17.940Z,100497.09
2023-03-13T17:24:45.005Z,100496.75
2023-03-13T17:27:16.889Z,100495.91
2023-03-13T17:29:45.023Z,100493.53
2023-03-13T17:32:13.697Z,100503.00
2023-03-13T17:34:44.482Z,100502.69
2023-03-13T17:37:20.667Z,100502.19
2023-03-13T17:39:51.549Z,100501.84
2023-03-13T17:42:19.320Z,100501.03
2023-03-13T17:44:46.315Z,100505.06
2023-03-13T17:47:18.237Z,100508.63
2023-03-13T17:49:45.921Z,100510.81
2023-03-13T17:52:15.152Z,100503.75
2023-03-13T17:54:44.113Z,100512.69
2023-03-13T17:57:17.506Z,100510.81
2023-03-13T17:59:45.236Z,100514.88
2023-03-13T18:02:14.513Z,100518.78
2023-03-13T18:04:41.870Z,100509.81
2023-03-13T18:07:23.120Z,100504.41
2023-03-13T18:09:50.175Z,100510.16
2023-03-13T18:12:17.358Z,100503.22
2023-03-13T18:14:44.524Z,100493.63
2023-03-13T18:17:17.658Z,100496.34
2023-03-13T18:19:45.447Z,100488.75
2023-03-13T18:22:17.905Z,100488.25
2023-03-13T18:24:45.340Z,100484.53
2023-03-13T18:27:20.303Z,100493.31
2023-03-13T18:29:49.247Z,100497.34
2023-03-13T18:32:18.464Z,100504.69
2023-03-13T18:34:45.876Z,100502.59
2023-03-13T18:37:33.660Z,100491.34
2023-03-13T18:40:01.081Z,100489.13
2023-03-13T18:42:28.118Z,100484.69
2023-03-13T18:44:55.231Z,100478.28
2023-03-13T18:47:25.177Z,100482.25
2023-03-13T18:49:52.173Z,100479.63
2023-03-13T18:52:19.104Z,100475.22
2023-03-13T18:54:46.046Z,100473.50
2023-03-13T18:57:19.324Z,100469.22
2023-03-13T18:59:46.819Z,100474.47
2023-03-13T19:02:15.998Z,100476.31
2023-03-13T19:04:44.275Z,100474.13
2023-03-13T19:07:14.937Z,100466.00
2023-03-13T19:09:43.949Z,100473.56
2023-03-13T19:12:12.414Z,100470.31
2023-03-13T19:14:39.469Z,100481.69
2023-03-13T19:17:14.633Z,100474.88
2023-03-13T19:19:41.638Z,100470.22
2023-03-13T19:22:13.582Z,100462.19
2023-03-13T19:24:40.660Z,100461.53
2023-03-13T19:27:07.794Z,100474.03
2023-03-13T19:29:36.619Z,100468.41
2023-03-13T19:32:07.755Z,100465.09
2023-03-13T19:34:34.699Z,100464.50
2023-03-13T19:37:01.731Z,100473.31
2023-03-13T19:39:28.844Z,100483.09
2023-03-13T19:41:57.712Z,100491.59
2023-03-13T19:44:25.569Z,100478.63
2023-03-13T19:46:54.700Z,100477.97
2023-03-13T19:49:23.336Z,100468.84
2023-03-13T19:51:50.294Z,100475.78
2023-03-13T19:54:17.211Z,100484.16
2023-03-13T19:56:46.826Z,100482.09
2023-03-13T19:59:17.584Z,100464.31
2023-03-13T20:01:44.977Z,100462.94
2023-03-13T20:04:12.795Z,100448.47
2023-03-13T20:06:42.923Z,100447.06
2023-03-13T20:09:12.525Z,100434.94
2023-03-13T20:11:39.506Z,100434.09
2023-03-13T20:14:06.759Z,100426.78
2023-03-13T20:16:35.177Z,100424.47
2023-03-13T20:19:03.061Z,100436.09
2023-03-13T20:21:41.210Z,100444.00
2023-03-13T20:24:09.488Z,100444.88
2023-03-13T20:26:36.408Z,100436.78
2023-03-13T20:29:03.440Z,100461.69
2023-03-13T20:31:31.660Z,100470.13
2023-03-13T20:34:00.037Z,100463.72
2023-03-13T20:36:27.690Z,100472.47
2023-03-13T20:38:54.619Z,100470.97
2023-03-13T20:41:25.229Z,100477.72
2023-03-13T20:43:53.292Z,100470.97
2023-03-13T20:46:21.064Z,100459.13
2023-03-13T20:48:48.714Z,100462.19
2023-03-13T20:51:15.869Z,100466.19
2023-03-13T20:53:43.099Z,100465.03
2023-03-13T20:56:11.003Z,100474.28
2023-03-13T20:58:38.774Z,100467.91
2023-03-13T21:01:07.778Z,100458.13
2023-03-13T21:03:36.015Z,100452.72
2023-03-13T21:06:19.142Z,100464.00
2023-03-13T21:08:47.062Z,100471.75
2023-03-13T21:11:16.684Z,100450.75
2023-03-13T21:13:43.824Z,100451.25
2023-03-13T21:16:11.044Z,100454.78
2023-03-13T21:18:37.977Z,100454.78
2023-03-13T21:21:07.221Z,100460.81
2023-03-13T21:23:34.916Z,100461.78
2023-03-13T21:26:01.898Z,100463.16
2023-03-13T21:28:28.880Z,100461.66
2023-03-13T21:30:56.874Z,100467.91
2023-03-13T21:33:24.220Z,100473.59
2023-03-13T21:35:51.684Z,100463.78
2023-03-13T21:38:18.839Z,100462.41
2023-03-13T21:40:45.759Z,100463.78
2023-03-13T21:43:12.800Z,100473.50
2023-03-13T21:45:39.720Z,100465.69
2023-03-13T21:48:07.025Z,100473.38
2023-03-13T21:50:33.995Z,100459.88
2023-03-13T21:53:01.189Z,100449.72
2023-03-13T21:55:28.156Z,100459.50
2023-03-13T21:57:55.172Z,100454.81
2023-03-13T22:00:22.428Z,100459.13
2023-03-13T22:02:49.756Z,100463.66
2023-03-13T22:05:16.812Z,100461.78
2023-03-13T22:07:45.384Z,100464.09
2023-03-13T22:10:12.335Z,100456.00
2023-03-13T22:12:39.351Z,100454.38
2023-03-13T22:15:07.168Z,100457.34
2023-03-13T22:17:34.165Z,100447.53
2023-03-13T22:20:01.194Z,100447.31
2023-03-13T22:22:28.101Z,100441.97
2023-03-13T22:24:55.028Z,100434.34
2023-03-13T22:27:24.207Z,100432.69
2023-03-13T22:29:51.354Z,100435.09
2023-03-13T22:32:19.070Z,100437.78
2023-03-13T22:34:48.327Z,100438.84
2023-03-13T22:37:16.073Z,100410.88
2023-03-13T22:39:42.989Z,100420.03
2023-03-13T22:42:10.013Z,100419.03
2023-03-13T22:44:36.936Z,100420.88
2023-03-13T22:47:04.632Z,100419.88
2023-03-13T22:49:31.719Z,100416.53
2023-03-13T22:51:59.503Z,100408.75
2023-03-13T22:54:26.894Z,100414.66
2023-03-13T22:56:54.290Z,100432.88
2023-03-13T22:59:21.295Z,100427.50
2023-03-13T23:01:52.021Z,100431.88
2023-03-13T23:04:19.019Z,100425.44
2023-03-13T23:06:46.047Z,100417.19
2023-03-13T23:09:13.107Z,100412.63
2023-03-13T23:11:40.166Z,100407.25
2023-03-13T23:14:07.686Z,100409.94
2023-03-13T23:16:34.718Z,100429.34
2023-03-13T23:19:02.828Z,100413.97
2023-03-13T23:21:29.806Z,100429.34
2023-03-13T23:23:56.972Z,100427.63
2023-03-13T23:26:23.991Z,100456.53
2023-03-13T23:28:51.033Z,100452.13
2023-03-13T23:31:21.115Z,100464.63
2023-03-13T23:33:48.792Z,100483.00
2023-03-13T23:36:18.697Z,100492.94
2023-03-13T23:38:49.999Z,100507.13
2023-03-13T23:41:17.430Z,100529.22
2023-03-13T23:43:44.567Z,100534.78
2023-03-13T23:46:20.181Z,100543.03
2023-03-13T23:48:47.123Z,100562.41
2023-03-13T23:51:14.277Z,100546.03
2023-03-13T23:53:42.692Z,100548.19
2023-03-13T23:56:11.006Z,100562.03
2023-03-13T23:58:38.396Z,100559.31
